Prudentia — PB4900 — position and weather

sailwx.info

Track history (hours):
 
Tides and Currents Weather Stations Pressure Air Temp Water Temp Dewpoint Dewpoint Depression Visibility Wind Speed Wind Dir Waves Ship Positions

Prudentia

Last reported at 2018-Feb-21 19:30 UTC. Time now 2018-Feb-21 19:48 UTC.
Position N 51°36' E 006°36'.

Length 70 m; draft 1.8 m.

Type: Ship. MMSI: 244660779.

Date/timePositionNaut miles runAvg speedWind from/ knotsBaromVisibWave heightAir tempDewpointWater temp
2018-Feb-21 19:30N 51°36' E 006°36'1 2.9
2018-Feb-21 19:00N 51°38' E 006°35'2 3.6
2018-Feb-21 18:30N 51°39' E 006°35'2 4.0
2018-Feb-21 17:59N 51°40' E 006°32'17 4.0
2018-Feb-21 13:39N 51°50' E 006°10'1 4.6
2018-Feb-21 13:30N 51°51' E 006°09'2 4.8
2018-Feb-21 13:00N 51°51' E 006°05'2 3.4
2018-Feb-21 12:30N 51°52' E 006°03'13 4.0
2018-Feb-21 09:22N 51°54' E 005°43'2 5.0
2018-Feb-21 09:00N 51°54' E 005°40'3 4.9
2018-Feb-21 08:18N 51°54' E 005°34'2 4.9
2018-Feb-21 07:56N 51°53' E 005°31'2 4.6
2018-Feb-21 07:26N 51°54' E 005°28'6 5.1
2018-Feb-21 06:13N 51°57' E 005°19'2 5.8
2018-Feb-21 05:56N 51°58' E 005°17'2 4.6
2018-Feb-21 05:28N 51°58' E 005°13'3 5.5
2018-Feb-21 04:59N 51°58' E 005°09'1 2.3
2018-Feb-21 04:30N 51°59' E 005°08'0 0.0
2018-Feb-21 04:00N 51°59' E 005°08'0 0.0
2018-Feb-21 03:30N 51°59' E 005°08'0 0.0
2018-Feb-21 03:00N 51°59' E 005°08'0 0.0
2018-Feb-21 02:27N 51°59' E 005°08'0 0.0
2018-Feb-21 02:00N 51°59' E 005°08'0 0.0
2018-Feb-21 01:30N 51°59' E 005°08'0 0.0
2018-Feb-21 01:00N 51°59' E 005°08'0 0.0
2018-Feb-21 00:29N 51°59' E 005°08'0 0.0
2018-Feb-20 23:58N 51°59' E 005°08'0 0.0
2018-Feb-20 23:29N 51°59' E 005°08'0 0.0
2018-Feb-20 22:58N 51°59' E 005°08'0 0.0
2018-Feb-20 22:30N 51°59' E 005°08'0 0.0
2018-Feb-20 22:00N 51°59' E 005°08'0 0.0
2018-Feb-20 21:29N 51°59' E 005°08'0 0.0
2018-Feb-20 21:00N 51°59' E 005°08'0 0.0
2018-Feb-20 20:30N 51°59' E 005°08'0 0.5
2018-Feb-20 19:52N 51°60' E 005°08'2 5.4
2018-Feb-20 19:30N 51°60' E 005°05'3 6.7
2018-Feb-20 19:00N 51°59' E 004°60'4 7.8
2018-Feb-20 18:30N 51°56' E 004°54'4 8.7
2018-Feb-20 18:00N 51°55' E 004°48'5 9.3
2018-Feb-20 17:30N 51°53' E 004°41'5 9.2
2018-Feb-20 17:00N 51°54' E 004°33'3 7.0
2018-Feb-20 16:31N 51°54' E 004°28'4 8.6
2018-Feb-20 16:01N 51°54' E 004°21'3 5.3
2018-Feb-20 15:30N 51°53' E 004°17'0 0.0
2018-Feb-20 15:00N 51°53' E 004°17'0 0.0
2018-Feb-20 14:31N 51°53' E 004°17'0 0.0
2018-Feb-20 14:01N 51°53' E 004°17'0 0.0
2018-Feb-20 13:29N 51°53' E 004°17'0 0.1
2018-Feb-20 13:01N 51°53' E 004°17'0 0.8
2018-Feb-20 12:30N 51°53' E 004°17'0 0.6
2018-Feb-20 12:01N 51°53' E 004°16'0 0.0
2018-Feb-20 11:31N 51°53' E 004°16'0 0.0
2018-Feb-20 11:01N 51°53' E 004°16'0 0.0
2018-Feb-20 10:30N 51°53' E 004°16'2 5.0
2018-Feb-20 10:00N 51°52' E 004°20'510.2
2018-Feb-20 09:30N 51°50' E 004°28'4 8.5
2018-Feb-20 09:00N 51°49' E 004°34'4 8.6
2018-Feb-20 08:30N 51°49' E 004°41'5 9.0
2018-Feb-20 08:00N 51°49' E 004°48'4 9.0
2018-Feb-20 07:30N 51°50' E 004°56'5 9.9
2018-Feb-20 07:00N 51°49' E 005°04'510.2
2018-Feb-20 06:30N 51°49' E 005°12'510.2
2018-Feb-20 06:00N 51°49' E 005°20'5 9.5
2018-Feb-20 05:29N 51°52' E 005°26'710.6
2018-Feb-20 04:51N 51°54' E 005°36'411.2
2018-Feb-20 04:30N 51°54' E 005°42'  
Track history (hours):
 
Tides and Currents Weather Stations Pressure Air Temp Water Temp Dewpoint Dewpoint Depression Visibility Wind Speed Wind Dir Waves Ship Positions

Prudentia

Last reported at 2018-Feb-21 19:30 UTC. Time now 2018-Feb-21 19:48 UTC.
Position N 51°36' E 006°36'.

Length 70 m; draft 1.8 m.

Type: Ship. MMSI: 244660779.

Date/timePositionNaut miles runAvg speedWind from/ knotsBaromVisibWave heightAir tempDewpointWater temp
2018-Feb-21 19:30N 51°36' E 006°36'1 2.9
2018-Feb-21 19:00N 51°38' E 006°35'2 3.6
2018-Feb-21 18:30N 51°39' E 006°35'2 4.0
2018-Feb-21 17:59N 51°40' E 006°32'17 4.0
2018-Feb-21 13:39N 51°50' E 006°10'1 4.6
2018-Feb-21 13:30N 51°51' E 006°09'2 4.8
2018-Feb-21 13:00N 51°51' E 006°05'2 3.4
2018-Feb-21 12:30N 51°52' E 006°03'13 4.0
2018-Feb-21 09:22N 51°54' E 005°43'2 5.0
2018-Feb-21 09:00N 51°54' E 005°40'3 4.9
2018-Feb-21 08:18N 51°54' E 005°34'2 4.9
2018-Feb-21 07:56N 51°53' E 005°31'2 4.6
2018-Feb-21 07:26N 51°54' E 005°28'6 5.1
2018-Feb-21 06:13N 51°57' E 005°19'2 5.8
2018-Feb-21 05:56N 51°58' E 005°17'2 4.6
2018-Feb-21 05:28N 51°58' E 005°13'3 5.5
2018-Feb-21 04:59N 51°58' E 005°09'1 2.3
2018-Feb-21 04:30N 51°59' E 005°08'0 0.0
2018-Feb-21 04:00N 51°59' E 005°08'0 0.0
2018-Feb-21 03:30N 51°59' E 005°08'0 0.0
2018-Feb-21 03:00N 51°59' E 005°08'0 0.0
2018-Feb-21 02:27N 51°59' E 005°08'0 0.0
2018-Feb-21 02:00N 51°59' E 005°08'0 0.0
2018-Feb-21 01:30N 51°59' E 005°08'0 0.0
2018-Feb-21 01:00N 51°59' E 005°08'0 0.0
2018-Feb-21 00:29N 51°59' E 005°08'0 0.0
2018-Feb-20 23:58N 51°59' E 005°08'0 0.0
2018-Feb-20 23:29N 51°59' E 005°08'0 0.0
2018-Feb-20 22:58N 51°59' E 005°08'0 0.0
2018-Feb-20 22:30N 51°59' E 005°08'0 0.0
2018-Feb-20 22:00N 51°59' E 005°08'0 0.0
2018-Feb-20 21:29N 51°59' E 005°08'0 0.0
2018-Feb-20 21:00N 51°59' E 005°08'0 0.0
2018-Feb-20 20:30N 51°59' E 005°08'0 0.5
2018-Feb-20 19:52N 51°60' E 005°08'2 5.4
2018-Feb-20 19:30N 51°60' E 005°05'3 6.7
2018-Feb-20 19:00N 51°59' E 004°60'4 7.8
2018-Feb-20 18:30N 51°56' E 004°54'4 8.7
2018-Feb-20 18:00N 51°55' E 004°48'5 9.3
2018-Feb-20 17:30N 51°53' E 004°41'5 9.2
2018-Feb-20 17:00N 51°54' E 004°33'3 7.0
2018-Feb-20 16:31N 51°54' E 004°28'4 8.6
2018-Feb-20 16:01N 51°54' E 004°21'3 5.3
2018-Feb-20 15:30N 51°53' E 004°17'0 0.0
2018-Feb-20 15:00N 51°53' E 004°17'0 0.0
2018-Feb-20 14:31N 51°53' E 004°17'0 0.0
2018-Feb-20 14:01N 51°53' E 004°17'0 0.0
2018-Feb-20 13:29N 51°53' E 004°17'0 0.1
2018-Feb-20 13:01N 51°53' E 004°17'0 0.8
2018-Feb-20 12:30N 51°53' E 004°17'0 0.6
2018-Feb-20 12:01N 51°53' E 004°16'0 0.0
2018-Feb-20 11:31N 51°53' E 004°16'0 0.0
2018-Feb-20 11:01N 51°53' E 004°16'0 0.0
2018-Feb-20 10:30N 51°53' E 004°16'2 5.0
2018-Feb-20 10:00N 51°52' E 004°20'510.2
2018-Feb-20 09:30N 51°50' E 004°28'4 8.5
2018-Feb-20 09:00N 51°49' E 004°34'4 8.6
2018-Feb-20 08:30N 51°49' E 004°41'5 9.0
2018-Feb-20 08:00N 51°49' E 004°48'4 9.0
2018-Feb-20 07:30N 51°50' E 004°56'5 9.9
2018-Feb-20 07:00N 51°49' E 005°04'510.2
2018-Feb-20 06:30N 51°49' E 005°12'510.2
2018-Feb-20 06:00N 51°49' E 005°20'5 9.5
2018-Feb-20 05:29N 51°52' E 005°26'710.6
2018-Feb-20 04:51N 51°54' E 005°36'411.2
2018-Feb-20 04:30N 51°54' E 005°42'  

Dump ship's entire track history